createdAt,value
2018-10-05T00:00:24.365Z,0
2018-10-05T00:01:24.652Z,0
2018-10-05T00:02:24.408Z,0
2018-10-05T00:03:24.444Z,0
2018-10-05T00:04:23.940Z,0
2018-10-05T00:05:24.504Z,0
2018-10-05T00:06:24.279Z,0
2018-10-05T00:07:24.807Z,0
2018-10-05T00:08:24.558Z,0
2018-10-05T00:09:24.347Z,0
2018-10-05T00:10:24.602Z,0
2018-10-05T00:11:24.380Z,0
2018-10-05T00:12:24.951Z,0
2018-10-05T00:13:24.427Z,0
2018-10-05T00:14:24.986Z,0
2018-10-05T00:15:24.243Z,0
2018-10-05T00:16:24.245Z,0
2018-10-05T00:17:24.796Z,0
2018-10-05T00:18:24.817Z,0
2018-10-05T00:19:25.123Z,0
2018-10-05T00:20:24.704Z,0
2018-10-05T00:21:24.905Z,0
2018-10-05T00:22:24.926Z,0
2018-10-05T00:23:24.936Z,0
2018-10-05T00:24:25.244Z,0
2018-10-05T00:25:24.986Z,0
2018-10-05T00:26:25.012Z,0
2018-10-05T00:27:26.309Z,0
2018-10-05T00:28:25.076Z,0
2018-10-05T00:29:25.365Z,0
2018-10-05T00:30:25.127Z,0
2018-10-05T00:31:25.152Z,0
2018-10-05T00:32:25.436Z,0
2018-10-05T00:33:25.210Z,0
2018-10-05T00:34:25.225Z,0
2018-10-05T00:35:25.270Z,0
2018-10-05T00:36:25.520Z,0
2018-10-05T00:37:25.036Z,0
2018-10-05T00:38:24.813Z,0
2018-10-05T00:39:25.112Z,0
2018-10-05T00:40:25.125Z,0
2018-10-05T00:41:25.470Z,0
2018-10-05T00:42:25.694Z,0
2018-10-05T00:43:25.461Z,0
2018-10-05T00:44:25.215Z,0
2018-10-05T00:45:25.494Z,0
2018-10-05T00:46:25.542Z,0
2018-10-05T00:47:25.302Z,0
2018-10-05T00:48:25.852Z,0
2018-10-05T00:49:25.867Z,0
2018-10-05T00:50:25.375Z,0
2018-10-05T00:51:25.656Z,0
2018-10-05T00:52:25.445Z,0
2018-10-05T00:53:25.278Z,0
2018-10-05T00:54:26.003Z,0
2018-10-05T00:55:25.495Z,0
2018-10-05T00:56:26.064Z,0
2018-10-05T00:57:25.586Z,0
2018-10-05T00:58:25.849Z,0
2018-10-05T00:59:25.867Z,0
2018-10-05T01:00:25.899Z,0
2018-10-05T01:01:25.419Z,0
2018-10-05T01:02:25.685Z,0
2018-10-05T01:03:26.242Z,0
2018-10-05T01:04:25.990Z,0
2018-10-05T01:05:26.060Z,0
2018-10-05T01:06:26.033Z,0
2018-10-05T01:07:25.816Z,0
2018-10-05T01:08:26.102Z,0
2018-10-05T01:09:26.121Z,0
2018-10-05T01:10:26.423Z,0
2018-10-05T01:11:26.271Z,0
2018-10-05T01:12:26.657Z,0
2018-10-05T01:13:26.490Z,0
2018-10-05T01:14:26.246Z,0
2018-10-05T01:15:26.544Z,0
2018-10-05T01:16:25.789Z,0
2018-10-05T01:17:26.335Z,0
2018-10-05T01:18:26.346Z,0
2018-10-05T01:19:26.637Z,0
2018-10-05T01:20:25.880Z,0
2018-10-05T01:21:26.165Z,0
2018-10-05T01:22:26.459Z,0
2018-10-05T01:23:26.470Z,0
2018-10-05T01:24:26.747Z,0
2018-10-05T01:25:26.519Z,0
2018-10-05T01:26:26.294Z,0
2018-10-05T01:27:26.699Z,0
2018-10-05T01:28:26.340Z,0
2018-10-05T01:29:26.619Z,0
2018-10-05T01:30:26.399Z,0
2018-10-05T01:31:26.437Z,0
2018-10-05T01:32:26.699Z,0
2018-10-05T01:33:26.479Z,0
2018-10-05T01:34:27.024Z,0
2018-10-05T01:35:26.777Z,0
2018-10-05T01:36:26.813Z,0
2018-10-05T01:37:26.845Z,0
2018-10-05T01:38:26.863Z,0
2018-10-05T01:39:26.637Z,0
2018-10-05T01:40:26.639Z,0
2018-10-05T01:41:27.188Z,0
2018-10-05T01:42:26.737Z,0
2018-10-05T01:43:27.268Z,0
2018-10-05T01:44:27.286Z,0
2018-10-05T01:45:27.901Z,0
2018-10-05T01:46:26.813Z,0
2018-10-05T01:47:26.576Z,0
2018-10-05T01:48:27.413Z,0
2018-10-05T01:49:26.634Z,0
2018-10-05T01:50:26.906Z,0
2018-10-05T01:51:27.226Z,0
2018-10-05T01:52:27.222Z,0
2018-10-05T01:53:27.517Z,0
2018-10-05T01:54:27.522Z,0
2018-10-05T01:55:26.795Z,0
2018-10-05T01:56:27.070Z,0
2018-10-05T01:57:27.358Z,0
2018-10-05T01:58:27.630Z,0
2018-10-05T01:59:27.399Z,0
2018-10-05T02:00:27.423Z,0
2018-10-05T02:01:27.188Z,0
2018-10-05T02:02:27.860Z,0
2018-10-05T02:03:27.237Z,0
2018-10-05T02:04:27.546Z,0
2018-10-05T02:05:27.554Z,0
2018-10-05T02:06:27.929Z,0
2018-10-05T02:07:27.608Z,0
2018-10-05T02:08:27.111Z,0
2018-10-05T02:09:27.394Z,0
2018-10-05T02:10:27.426Z,0
2018-10-05T02:11:27.192Z,0
2018-10-05T02:12:27.734Z,0
2018-10-05T02:13:42.664Z,0
2018-10-05T02:14:27.791Z,0
2018-10-05T02:15:27.818Z,0
2018-10-05T02:16:27.336Z,0
2018-10-05T02:17:28.117Z,0
2018-10-05T02:18:27.641Z,0
2018-10-05T02:19:27.654Z,0
2018-10-05T02:20:28.215Z,0
2018-10-05T02:21:28.210Z,0
2018-10-05T02:22:27.738Z,0
2018-10-05T02:23:27.766Z,0
2018-10-05T02:24:27.802Z,0
2018-10-05T02:25:28.338Z,0
2018-10-05T02:26:28.084Z,0
2018-10-05T02:27:28.291Z,0
2018-10-05T02:28:32.533Z,0
2018-10-05T02:29:27.942Z,0
2018-10-05T02:30:28.217Z,0
2018-10-05T02:31:28.519Z,0
2018-10-05T02:32:27.996Z,0
2018-10-05T02:33:28.528Z,0
2018-10-05T02:34:28.037Z,0
2018-10-05T02:35:28.325Z,0
2018-10-05T02:36:28.347Z,0
2018-10-05T02:38:28.404Z,0
2018-10-05T02:39:27.934Z,0
2018-10-05T02:40:28.750Z,0
2018-10-05T02:41:28.571Z,0
2018-10-05T02:42:28.257Z,0
2018-10-05T02:43:28.275Z,0
2018-10-05T02:44:28.578Z,0
2018-10-05T02:45:28.330Z,0
2018-10-05T02:46:28.853Z,0
2018-10-05T02:47:28.631Z,0
2018-10-05T02:48:28.148Z,0
2018-10-05T02:49:28.706Z,0
2018-10-05T02:50:28.711Z,0
2018-10-05T02:51:28.989Z,0
2018-10-05T02:52:28.503Z,0
2018-10-05T02:53:28.913Z,0
2018-10-05T02:54:28.815Z,0
2018-10-05T02:55:28.849Z,0
2018-10-05T02:56:29.144Z,0
2018-10-05T02:57:28.365Z,0
2018-10-05T02:58:28.931Z,0
2018-10-05T02:59:28.416Z,0
2018-10-05T03:00:29.232Z,0
2018-10-05T03:01:29.241Z,0
2018-10-05T03:02:29.036Z,0
2018-10-05T03:03:28.791Z,0
2018-10-05T03:04:28.833Z,0
2018-10-05T03:05:29.093Z,0
2018-10-05T03:06:28.873Z,0
2018-10-05T03:07:28.901Z,0
2018-10-05T03:08:29.164Z,0
2018-10-05T03:09:28.968Z,0
2018-10-05T03:10:28.967Z,0
2018-10-05T03:11:29.251Z,0
2018-10-05T03:12:29.531Z,0
2018-10-05T03:13:29.316Z,0
2018-10-05T03:14:29.315Z,0
2018-10-05T03:15:29.101Z,0
2018-10-05T03:16:29.121Z,0
2018-10-05T03:17:29.155Z,0
2018-10-05T03:18:29.705Z,0
2018-10-05T03:19:29.467Z,0
2018-10-05T03:20:29.746Z,0
2018-10-05T03:21:29.249Z,0
2018-10-05T03:22:29.026Z,0
2018-10-05T03:23:58.859Z,0
2018-10-05T03:24:29.339Z,0
2018-10-05T03:25:29.612Z,0
2018-10-05T03:26:29.641Z,0
2018-10-05T03:27:29.923Z,0
2018-10-05T03:28:29.688Z,0
2018-10-05T03:29:29.743Z,0
2018-10-05T03:30:29.235Z,0
2018-10-05T03:31:29.512Z,0
2018-10-05T03:32:30.075Z,0
2018-10-05T03:33:30.085Z,0
2018-10-05T03:34:30.090Z,0
2018-10-05T03:35:29.604Z,0
2018-10-05T03:36:29.935Z,0
2018-10-05T03:37:29.917Z,0
2018-10-05T03:38:29.969Z,0
2018-10-05T03:39:30.045Z,0
2018-10-05T03:40:30.005Z,0
2018-10-05T03:41:29.779Z,0
2018-10-05T03:42:30.071Z,0
2018-10-05T03:43:29.809Z,0
2018-10-05T03:44:30.081Z,0
2018-10-05T03:45:30.379Z,0
2018-10-05T03:46:29.910Z,0
2018-10-05T03:47:30.438Z,0
2018-10-05T03:48:30.467Z,0
2018-10-05T03:49:29.968Z,0
2018-10-05T03:50:30.522Z,0
2018-10-05T03:51:30.269Z,0
2018-10-05T03:52:30.037Z,0
2018-10-05T03:53:30.080Z,0
2018-10-05T03:54:30.611Z,0
2018-10-05T03:55:30.368Z,0
2018-10-05T03:56:30.412Z,0
2018-10-05T03:57:30.433Z,0
2018-10-05T03:58:30.456Z,0
2018-10-05T03:59:29.982Z,0
2018-10-05T04:00:30.009Z,0
2018-10-05T04:01:30.272Z,0
2018-10-05T04:02:30.303Z,0
2018-10-05T04:03:30.848Z,0
2018-10-05T04:04:30.346Z,0
2018-10-05T04:05:30.890Z,0
2018-10-05T04:06:30.924Z,0
2018-10-05T04:07:30.441Z,0
2018-10-05T04:08:30.980Z,0
2018-10-05T04:09:30.487Z,0
2018-10-05T04:10:30.770Z,0
2018-10-05T04:11:30.531Z,0
2018-10-05T04:12:30.557Z,0
2018-10-05T04:13:30.329Z,0
2018-10-05T04:14:30.850Z,0
2018-10-05T04:15:31.137Z,0
2018-10-05T04:16:30.659Z,0
2018-10-05T04:17:31.220Z,0
2018-10-05T04:18:31.234Z,0
2018-10-05T04:19:31.001Z,0
2018-10-05T04:20:31.027Z,0
2018-10-05T04:21:31.299Z,0
2018-10-05T04:22:30.809Z,0
2018-10-05T04:23:31.085Z,0
2018-10-05T04:24:31.390Z,0
2018-10-05T04:25:31.146Z,0
2018-10-05T04:26:30.914Z,0
2018-10-05T04:27:31.368Z,0
2018-10-05T04:28:31.226Z,0
2018-10-05T04:29:31.240Z,0
2018-10-05T04:30:31.023Z,0
2018-10-05T04:31:31.294Z,0
2018-10-05T04:32:31.053Z,0
2018-10-05T04:33:31.111Z,0
2018-10-05T04:34:31.110Z,0
2018-10-05T04:35:31.629Z,0
2018-10-05T04:36:31.687Z,0
2018-10-05T04:37:30.934Z,0
2018-10-05T04:38:30.978Z,0
2018-10-05T04:39:31.493Z,0
2018-10-05T04:40:31.005Z,0
2018-10-05T04:41:32.020Z,0
2018-10-05T04:42:31.855Z,0
2018-10-05T04:43:31.353Z,0
2018-10-05T04:44:31.364Z,0
2018-10-05T04:45:31.136Z,0
2018-10-05T04:46:31.678Z,0
2018-10-05T04:47:31.968Z,0
2018-10-05T04:48:31.729Z,0
2018-10-05T04:49:35.840Z,0
2018-10-05T04:50:31.544Z,0
2018-10-05T04:51:32.070Z,0
2018-10-05T04:52:31.837Z,0
2018-10-05T04:53:31.882Z,0
2018-10-05T04:54:31.627Z,0
2018-10-05T04:55:31.926Z,0
2018-10-05T04:56:32.405Z,0
2018-10-05T04:57:31.952Z,0
2018-10-05T04:58:32.264Z,0
2018-10-05T04:59:32.020Z,0
2018-10-05T05:00:31.794Z,0
2018-10-05T05:01:31.793Z,0
2018-10-05T05:02:32.306Z,0
2018-10-05T05:03:31.992Z,0
2018-10-05T05:04:32.138Z,0
2018-10-05T05:05:31.900Z,0
2018-10-05T05:06:32.453Z,0
2018-10-05T05:07:32.229Z,0
2018-10-05T05:08:32.234Z,0
2018-10-05T05:09:31.756Z,0
2018-10-05T05:10:32.037Z,0
2018-10-05T05:11:32.304Z,0
2018-10-05T05:12:32.087Z,0
2018-10-05T05:13:32.117Z,0
2018-10-05T05:14:32.283Z,0
2018-10-05T05:15:32.427Z,0
2018-10-05T05:16:32.704Z,0
2018-10-05T05:17:32.472Z,0
2018-10-05T05:18:32.231Z,0
2018-10-05T05:19:32.671Z,0
2018-10-05T05:20:32.560Z,0
2018-10-05T05:21:32.569Z,0
2018-10-05T05:22:32.601Z,0
2018-10-05T05:23:32.102Z,0
2018-10-05T05:24:32.393Z,0
2018-10-05T05:25:32.683Z,0
2018-10-05T05:26:32.709Z,0
2018-10-05T05:27:32.997Z,0
2018-10-05T05:28:32.829Z,0
2018-10-05T05:29:32.503Z,0
2018-10-05T05:30:32.803Z,0
2018-10-05T05:31:32.825Z,0
2018-10-05T05:32:32.598Z,0
2018-10-05T05:33:33.036Z,0
2018-10-05T05:34:32.906Z,0
2018-10-05T05:35:33.212Z,0
2018-10-05T05:36:32.698Z,0
2018-10-05T05:37:32.720Z,0
2018-10-05T05:38:33.021Z,0
2018-10-05T05:39:32.776Z,0
2018-10-05T05:40:33.103Z,0
2018-10-05T05:41:33.352Z,0
2018-10-05T05:42:33.106Z,0
2018-10-05T05:43:33.151Z,0
2018-10-05T05:44:32.895Z,0
2018-10-05T05:45:33.186Z,0
2018-10-05T05:46:32.959Z,0
2018-10-05T05:47:32.974Z,0
2018-10-05T05:48:33.325Z,0
2018-10-05T05:49:33.309Z,0
2018-10-05T05:50:33.326Z,0
2018-10-05T05:51:33.356Z,0
2018-10-05T05:52:33.393Z,0
2018-10-05T05:53:32.880Z,0
2018-10-05T05:54:33.860Z,0
2018-10-05T05:55:32.945Z,0
2018-10-05T05:56:33.219Z,0
2018-10-05T05:57:33.742Z,0
2018-10-05T05:58:33.529Z,0
2018-10-05T05:59:33.554Z,0
2018-10-05T06:00:33.818Z,0
2018-10-05T06:01:33.871Z,0
2018-10-05T06:02:33.357Z,0
2018-10-05T06:03:33.636Z,0
2018-10-05T06:04:33.691Z,0
2018-10-05T06:05:33.703Z,0
2018-10-05T06:06:33.205Z,0
2018-10-05T06:07:33.490Z,0
2018-10-05T06:08:33.517Z,0
2018-10-05T06:09:34.063Z,0
2018-10-05T06:10:33.826Z,0
2018-10-05T06:11:33.598Z,0
2018-10-05T06:12:34.165Z,0
2018-10-05T06:13:33.910Z,0
2018-10-05T06:14:33.942Z,0
2018-10-05T06:15:33.990Z,0
2018-10-05T06:16:34.345Z,0
2018-10-05T06:17:34.014Z,0
2018-10-05T06:18:34.034Z,0
2018-10-05T06:19:33.797Z,0
2018-10-05T06:20:34.080Z,128
2018-10-05T06:21:33.679Z,188
2018-10-05T06:22:34.811Z,220
2018-10-05T06:23:34.163Z,236
2018-10-05T06:24:34.192Z,244
2018-10-05T06:25:34.236Z,252
2018-10-05T06:26:33.974Z,0
2018-10-05T06:27:34.103Z,0
2018-10-05T06:28:33.782Z,0
2018-10-05T06:29:34.580Z,0
2018-10-05T06:30:34.209Z,0
2018-10-05T06:31:33.865Z,0
2018-10-05T06:32:33.878Z,0
2018-10-05T06:33:34.678Z,0
2018-10-05T06:34:34.455Z,0
2018-10-05T06:35:34.465Z,0
2018-10-05T06:36:34.483Z,0
2018-10-05T06:37:34.505Z,0
2018-10-05T06:38:34.288Z,0
2018-10-05T06:39:34.867Z,0
2018-10-05T06:40:34.715Z,0
2018-10-05T06:41:34.393Z,0
2018-10-05T06:42:34.973Z,0
2018-10-05T06:43:34.993Z,0
2018-10-05T06:44:34.983Z,0
2018-10-05T06:45:34.741Z,0
2018-10-05T06:46:34.753Z,0
2018-10-05T06:47:34.778Z,0
2018-10-05T06:48:34.544Z,0
2018-10-05T06:49:34.569Z,0
2018-10-05T06:50:34.859Z,0
2018-10-05T06:51:34.887Z,0
2018-10-05T06:52:35.171Z,0
2018-10-05T06:53:34.670Z,0
2018-10-05T06:54:34.943Z,0
2018-10-05T06:55:35.234Z,0
2018-10-05T06:56:34.740Z,0
2018-10-05T06:57:35.290Z,0
2018-10-05T06:58:35.374Z,0
2018-10-05T06:59:35.081Z,0
2018-10-05T07:00:34.866Z,0
2018-10-05T07:01:35.640Z,0
2018-10-05T07:02:35.433Z,0
2018-10-05T07:03:34.928Z,0
2018-10-05T07:04:35.200Z,0
2018-10-05T07:05:35.232Z,0
2018-10-05T07:06:35.268Z,0
2018-10-05T07:07:35.177Z,0
2018-10-05T07:08:35.312Z,0
2018-10-05T07:09:35.349Z,0
2018-10-05T07:10:35.353Z,0
2018-10-05T07:11:35.371Z,128
2018-10-05T07:12:35.176Z,180
2018-10-05T07:13:35.190Z,224
2018-10-05T07:14:35.739Z,236
2018-10-05T07:15:35.234Z,248
2018-10-05T07:16:35.260Z,252
2018-10-05T07:17:35.298Z,248
2018-10-05T07:18:35.301Z,232
2018-10-05T07:19:35.840Z,248
2018-10-05T07:20:35.623Z,252
2018-10-05T07:21:36.212Z,248
2018-10-05T07:22:36.348Z,248
2018-10-05T07:23:35.709Z,252
2018-10-05T07:24:35.710Z,256
2018-10-05T07:25:35.994Z,256
2018-10-05T07:26:35.253Z,252
2018-10-05T07:27:35.809Z,248
2018-10-05T07:28:36.148Z,248
2018-10-05T07:29:36.113Z,248
2018-10-05T07:30:35.612Z,248
2018-10-05T07:31:35.652Z,248
2018-10-05T07:32:35.922Z,244
2018-10-05T07:33:35.443Z,244
2018-10-05T07:34:36.216Z,248
2018-10-05T07:35:36.258Z,240
2018-10-05T07:36:36.326Z,240
2018-10-05T07:37:35.544Z,236
2018-10-05T07:38:36.341Z,236
2018-10-05T07:39:36.117Z,252
2018-10-05T07:40:36.139Z,248
2018-10-05T07:41:36.170Z,248
2018-10-05T07:42:36.450Z,248
2018-10-05T07:43:35.949Z,248
2018-10-05T07:44:36.239Z,248
2018-10-05T07:45:36.263Z,248
